Time;durP1;ratioP1;P1;durP2;ratioP2;P2;SDS_P1;SDS_P2;PMS_P1;PMS_P2;Temp;Humidity;BMP_temperature;BMP_pressure;BME280_temperature;BME280_humidity;BME280_pressure;Samples;Min_cycle;Max_cycle;Signal;HPM_P1;HPM_P2
2021/03/29 00:01:37;;;;;;;3.70;2.70;;;;;;;11.96;41.18;96960.94;5031622;28;20229;-81
2021/03/29 00:04:03;;;;;;;4.27;2.50;;;;;;;11.91;42.26;96958.84;5032281;28;20678;-79
2021/03/29 00:06:30;;;;;;;3.17;2.50;;;;;;;11.87;41.43;96952.34;5031217;28;20229;-80
2021/03/29 00:08:57;;;;;;;3.93;2.37;;;;;;;11.86;42.19;96955.88;5031973;28;20748;-79
2021/03/29 00:11:24;;;;;;;3.47;2.40;;;;;;;11.85;41.59;96954.25;5031752;28;20230;-80
2021/03/29 00:13:52;;;;;;;4.40;3.20;;;;;;;11.69;42.84;96961.84;5032390;28;20206;-82
2021/03/29 00:16:20;;;;;;;5.27;2.60;;;;;;;11.64;43.09;96964.88;5031598;28;20712;-81
2021/03/29 00:18:47;;;;;;;5.00;2.70;;;;;;;11.60;43.43;96960.16;5031138;28;20240;-80
2021/03/29 00:21:13;;;;;;;3.30;2.47;;;;;;;11.60;42.71;96958.38;5030420;28;20900;-81
2021/03/29 00:23:41;;;;;;;2.97;2.47;;;;;;;11.53;43.61;96951.41;5031446;28;20225;-82
2021/03/29 00:26:08;;;;;;;2.87;2.37;;;;;;;11.50;43.31;96964.59;5032055;28;20226;-80
2021/03/29 00:28:35;;;;;;;2.47;2.20;;;;;;;11.42;43.68;96960.97;5031327;28;20198;-80
2021/03/29 00:31:04;;;;;;;2.90;2.57;;;;;;;11.36;43.39;96953.81;5032061;28;20194;-82
2021/03/29 00:33:31;;;;;;;4.10;2.40;;;;;;;11.34;43.32;96955.75;5031621;28;20226;-81
2021/03/29 00:35:59;;;;;;;3.13;2.10;;;;;;;11.18;43.94;96954.78;4992273;28;20241;-81
2021/03/29 00:38:25;;;;;;;2.80;2.10;;;;;;;11.21;44.28;96951.91;4992049;28;20234;-80
2021/03/29 00:40:55;;;;;;;3.07;2.63;;;;;;;11.18;44.33;96955.59;5029129;28;20221;-82
2021/03/29 00:43:24;;;;;;;3.80;3.00;;;;;;;11.15;44.25;96955.91;5031685;28;20563;-81
2021/03/29 00:45:53;;;;;;;3.07;2.77;;;;;;;11.12;44.21;96955.38;5030301;28;20222;-79
2021/03/29 00:48:22;;;;;;;4.10;2.40;;;;;;;11.13;44.15;96962.16;5029280;28;20225;-81
2021/03/29 00:50:51;;;;;;;3.33;2.37;;;;;;;11.10;44.26;96968.41;5031180;28;20640;-81
2021/03/29 00:53:18;;;;;;;2.93;2.63;;;;;;;11.10;44.71;96971.00;5017926;28;20644;-80
2021/03/29 00:55:48;;;;;;;3.83;2.80;;;;;;;11.10;44.68;96972.75;5018420;28;20689;-82
2021/03/29 00:58:16;;;;;;;3.40;2.77;;;;;;;11.05;44.81;96968.03;5032239;28;20198;-81
2021/03/29 01:00:44;;;;;;;3.90;2.83;;;;;;;11.04;44.99;96967.22;5031396;28;20280;-81
2021/03/29 01:03:14;;;;;;;3.87;2.60;;;;;;;11.02;44.89;96968.31;5031421;28;20225;-79
2021/03/29 01:05:42;;;;;;;3.30;2.80;;;;;;;10.94;45.09;96974.22;5031419;28;20619;-82
2021/03/29 01:08:10;;;;;;;4.33;3.00;;;;;;;10.93;44.99;96961.47;5030901;28;20233;-80
2021/03/29 01:10:36;;;;;;;4.17;2.87;;;;;;;10.91;45.00;96965.94;5030481;28;20202;-81
2021/03/29 01:13:06;;;;;;;3.27;2.70;;;;;;;10.90;45.26;96962.56;5031785;28;20198;-81
2021/03/29 01:15:33;;;;;;;5.57;2.70;;;;;;;10.94;45.43;96965.66;5030939;28;20233;-81
2021/03/29 01:18:02;;;;;;;2.93;2.40;;;;;;;10.90;45.87;96972.88;5031339;28;20230;-80
2021/03/29 01:20:41;;;;;;;3.00;2.70;;;;;;;10.94;45.87;96973.41;5031576;28;20292;-80
2021/03/29 01:23:09;;;;;;;3.47;2.80;;;;;;;10.94;45.40;96974.22;5030531;28;20229;-80
2021/03/29 01:25:39;;;;;;;5.30;3.13;;;;;;;10.98;45.47;96972.13;5030793;28;20226;-80
2021/03/29 01:28:11;;;;;;;4.83;3.00;;;;;;;10.93;46.02;96972.59;5031405;28;20202;-81
2021/03/29 01:30:39;;;;;;;3.30;2.73;;;;;;;10.93;45.52;96972.59;5030638;28;20225;-79
2021/03/29 01:33:07;;;;;;;4.63;2.63;;;;;;;10.86;45.74;96966.38;5030910;28;20217;-81
2021/03/29 01:35:35;;;;;;;2.60;2.40;;;;;;;10.89;45.53;96965.28;5030871;28;20234;-80
2021/03/29 01:38:03;;;;;;;4.50;2.60;;;;;;;10.83;45.26;96958.94;5031799;28;20597;-80
2021/03/29 01:40:33;;;;;;;2.70;2.27;;;;;;;10.83;45.01;96961.50;5037325;28;20214;-79
2021/03/29 01:42:59;;;;;;;3.23;2.40;;;;;;;10.84;45.45;96967.47;5037213;28;20210;-81
2021/03/29 01:45:27;;;;;;;4.33;2.67;;;;;;;10.68;46.13;96970.66;5035582;28;20238;-79
2021/03/29 01:47:53;;;;;;;2.67;2.40;;;;;;;10.59;45.97;96971.50;5035790;28;20225;-80
2021/03/29 01:50:23;;;;;;;2.83;2.50;;;;;;;10.48;46.42;96967.38;5036311;28;20221;-81
2021/03/29 01:52:49;;;;;;;4.93;2.60;;;;;;;10.48;46.14;96971.72;5025925;28;20203;-81
2021/03/29 01:55:15;;;;;;;3.57;2.70;;;;;;;10.47;46.07;96967.50;5031141;28;20231;-83
2021/03/29 01:57:41;;;;;;;2.90;2.50;;;;;;;10.40;45.97;96972.41;5034735;28;20253;-83
2021/03/29 02:00:10;;;;;;;2.90;2.60;;;;;;;10.37;46.07;96970.94;5035507;28;20222;-82
2021/03/29 02:02:37;;;;;;;3.43;2.33;;;;;;;10.36;45.77;96969.31;5035903;28;20820;-83
2021/03/29 02:05:08;;;;;;;4.30;2.67;;;;;;;10.39;45.80;96973.38;5035058;28;20226;-83
2021/03/29 02:07:34;;;;;;;3.60;2.60;;;;;;;10.36;45.72;96973.66;5036154;28;20206;-82
2021/03/29 02:10:01;;;;;;;3.20;2.37;;;;;;;10.39;45.70;96973.38;5035637;28;20202;-83
2021/03/29 02:12:28;;;;;;;4.20;2.53;;;;;;;10.42;45.13;96967.94;5036258;28;20765;-82
2021/03/29 02:14:54;;;;;;;2.80;2.57;;;;;;;10.44;45.22;96967.78;5036029;28;20238;-83
2021/03/29 02:17:20;;;;;;;3.57;2.30;;;;;;;10.41;45.22;96968.88;5036203;28;20245;-79
2021/03/29 02:19:47;;;;;;;3.20;2.30;;;;;;;10.39;44.99;96974.16;5036257;28;20206;-80
2021/03/29 02:22:14;;;;;;;2.40;2.20;;;;;;;10.41;44.76;96962.91;5036703;28;20673;-80
2021/03/29 02:24:42;;;;;;;3.83;2.40;;;;;;;10.37;44.59;96968.38;5035677;28;20229;-80
2021/03/29 02:27:08;;;;;;;2.63;2.40;;;;;;;10.42;44.56;96972.25;5035586;28;20352;-80
2021/03/29 02:29:34;;;;;;;3.83;2.30;;;;;;;10.41;44.60;96968.06;5038530;28;20442;-81
2021/03/29 02:32:01;;;;;;;3.40;2.10;;;;;;;10.34;44.33;96970.41;5039772;28;20238;-80
2021/03/29 02:34:27;;;;;;;4.87;2.20;;;;;;;10.34;44.60;96967.84;5039248;28;20348;-80
2021/03/29 02:36:56;;;;;;;2.70;1.90;;;;;;;10.35;44.59;96972.03;5038987;28;20240;-79
2021/03/29 02:39:22;;;;;;;3.10;2.13;;;;;;;10.29;44.22;96965.69;5039620;28;20232;-81
2021/03/29 02:41:50;;;;;;;2.77;2.27;;;;;;;10.24;44.37;96965.28;5039231;28;20910;-81
2021/03/29 02:44:17;;;;;;;3.33;2.30;;;;;;;10.28;44.25;96966.63;5038724;28;20226;-81
2021/03/29 02:46:44;;;;;;;4.00;2.20;;;;;;;10.29;44.35;96970.81;5029241;28;20241;-79
2021/03/29 02:49:11;;;;;;;3.97;2.20;;;;;;;10.21;44.74;96969.88;5019846;28;20203;-81
2021/03/29 02:51:42;;;;;;;3.10;2.50;;;;;;;10.17;44.98;96974.50;5021126;28;20210;-82
2021/03/29 02:54:11;;;;;;;3.23;2.13;;;;;;;10.12;45.11;96968.94;5018711;28;20218;-81
2021/03/29 02:56:40;;;;;;;6.07;2.30;;;;;;;10.04;45.28;96969.63;5031829;28;20245;-80
2021/03/29 02:59:10;;;;;;;4.03;2.50;;;;;;;10.12;44.63;96981.00;5038258;28;20226;-82
2021/03/29 03:01:39;;;;;;;2.70;2.30;;;;;;;10.07;44.82;96976.25;5038260;28;20250;-80
2021/03/29 03:04:07;;;;;;;4.07;2.43;;;;;;;10.00;45.32;96975.22;5038279;28;20212;-79
2021/03/29 03:06:33;;;;;;;5.90;2.30;;;;;;;9.96;45.77;96974.69;5037615;28;20237;-79
2021/03/29 03:09:04;;;;;;;3.20;2.17;;;;;;;9.90;45.60;96966.69;5037954;28;20253;-80
2021/03/29 03:11:32;;;;;;;4.27;2.27;;;;;;;9.90;45.54;96979.56;5038435;28;20582;-80
2021/03/29 03:13:59;;;;;;;3.10;2.70;;;;;;;9.87;45.60;96980.63;5038169;28;20222;-82
2021/03/29 03:16:25;;;;;;;4.37;2.80;;;;;;;9.79;46.00;96977.13;5037152;28;20274;-78
2021/03/29 03:18:51;;;;;;;5.73;2.63;;;;;;;9.76;46.28;96990.28;5037943;28;20226;-80
2021/03/29 03:21:19;;;;;;;7.07;2.73;;;;;;;9.82;46.34;96980.22;5037397;28;20226;-79
2021/03/29 03:23:55;;;;;;;9.30;3.23;;;;;;;9.90;46.09;96989.84;5036692;28;20229;-81
2021/03/29 03:26:23;;;;;;;12.50;3.37;;;;;;;9.95;45.33;96985.91;5037517;28;20221;-79
2021/03/29 03:28:50;;;;;;;19.43;3.60;;;;;;;9.91;45.46;96988.88;5037941;28;20194;-81
2021/03/29 03:31:16;;;;;;;8.20;3.43;;;;;;;9.89;45.05;96990.78;5037609;28;20741;-80
2021/03/29 03:33:42;;;;;;;12.83;3.27;;;;;;;9.87;44.78;96990.94;5037401;28;20226;-80
2021/03/29 03:36:09;;;;;;;6.93;3.13;;;;;;;9.89;45.07;96994.16;5036660;28;20312;-80
2021/03/29 03:38:38;;;;;;;4.33;2.87;;;;;;;9.91;45.43;96994.03;5036015;28;20253;-80
2021/03/29 03:41:06;;;;;;;3.67;2.50;;;;;;;9.83;44.99;96994.72;5034802;28;20240;-81
2021/03/29 03:43:36;;;;;;;6.03;3.10;;;;;;;9.73;45.42;96995.69;5035596;28;20217;-80
2021/03/29 03:46:06;;;;;;;3.27;2.43;;;;;;;9.73;45.40;96993.09;4997511;28;20227;-80
2021/03/29 03:48:34;;;;;;;3.70;2.40;;;;;;;9.72;44.60;96994.88;5035636;28;20237;-79
2021/03/29 03:51:01;;;;;;;3.67;2.40;;;;;;;9.77;44.75;96995.28;5035909;28;20230;-79
2021/03/29 03:53:28;;;;;;;3.60;2.40;;;;;;;9.78;44.24;96999.47;5019609;28;20227;-79
2021/03/29 03:55:56;;;;;;;2.83;2.57;;;;;;;9.70;45.04;96994.19;5030044;28;20229;-81
2021/03/29 03:58:23;;;;;;;4.80;3.00;;;;;;;9.63;44.97;96996.47;5034847;28;20202;-80
2021/03/29 04:00:50;;;;;;;3.47;2.70;;;;;;;9.57;44.86;96997.03;5033436;28;20226;-82
2021/03/29 04:03:16;;;;;;;4.70;2.60;;;;;;;9.56;44.95;96997.19;5033791;28;20352;-81
2021/03/29 04:05:43;;;;;;;4.13;2.40;;;;;;;9.59;45.19;97004.63;5032514;28;20234;-80
2021/03/29 04:08:10;;;;;;;3.10;2.40;;;;;;;9.50;45.22;97011.38;5034293;28;20232;-81
2021/03/29 04:10:42;;;;;;;5.57;2.50;;;;;;;9.53;45.16;97005.97;5032721;28;20206;-79
2021/03/29 04:13:11;;;;;;;7.07;2.50;;;;;;;9.55;45.24;97009.22;5029525;28;20274;-82
2021/03/29 04:15:37;;;;;;;4.50;2.70;;;;;;;9.62;45.08;96999.22;5021862;28;20813;-80
2021/03/29 04:18:04;;;;;;;6.20;3.10;;;;;;;9.60;45.18;96999.34;5034252;28;20236;-80
2021/03/29 04:20:32;;;;;;;5.23;2.87;;;;;;;9.66;45.22;97003.13;5034567;28;20222;-80
2021/03/29 04:22:58;;;;;;;5.43;2.53;;;;;;;9.66;44.62;97003.94;5033645;28;20763;-81
2021/03/29 04:25:24;;;;;;;3.73;2.57;;;;;;;9.73;44.52;97008.53;5034740;28;20222;-79
2021/03/29 04:27:50;;;;;;;6.33;2.60;;;;;;;9.69;44.40;97008.81;5033398;28;20632;-80
2021/03/29 04:30:17;;;;;;;3.17;2.17;;;;;;;9.63;44.58;97016.25;5034124;28;20755;-81
2021/03/29 04:32:46;;;;;;;3.67;2.40;;;;;;;9.61;43.98;97016.41;5029792;28;20226;-81
2021/03/29 04:35:13;;;;;;;4.37;2.30;;;;;;;9.59;43.96;97010.59;5011423;28;20229;-81
2021/03/29 04:37:40;;;;;;;5.23;2.50;;;;;;;9.58;44.08;97026.16;5011326;28;20249;-81
2021/03/29 04:40:07;;;;;;;4.00;2.10;;;;;;;9.56;43.78;97023.69;5013192;28;20209;-82
2021/03/29 04:42:33;;;;;;;3.70;2.23;;;;;;;9.61;43.81;97031.03;5024992;28;20222;-81
2021/03/29 04:44:59;;;;;;;4.37;2.43;;;;;;;9.55;44.09;97023.84;5031897;28;20252;-80
2021/03/29 04:47:25;;;;;;;3.40;2.60;;;;;;;9.59;43.84;97023.44;5030573;28;20232;-80
2021/03/29 04:49:51;;;;;;;2.70;2.10;;;;;;;9.55;43.84;97031.56;5030854;28;20244;-81
2021/03/29 04:52:17;;;;;;;3.47;2.50;;;;;;;9.60;44.13;97031.97;5023766;28;20242;-81
2021/03/29 04:54:44;;;;;;;3.33;2.13;;;;;;;9.54;43.51;97035.06;5013414;28;20225;-80
2021/03/29 04:57:10;;;;;;;3.93;2.10;;;;;;;9.50;43.53;97034.50;5031316;28;20237;-81
2021/03/29 04:59:36;;;;;;;3.63;2.40;;;;;;;9.47;43.58;97033.97;5032846;28;20230;-81
2021/03/29 05:02:02;;;;;;;7.63;2.30;;;;;;;9.48;44.00;97038.97;5032481;28;20315;-79
2021/03/29 05:04:28;;;;;;;6.10;2.30;;;;;;;9.51;43.84;97040.47;5033331;28;20876;-80
2021/03/29 05:06:54;;;;;;;9.43;2.33;;;;;;;9.55;43.86;97045.22;5031853;28;20660;-81
2021/03/29 05:09:20;;;;;;;6.73;2.67;;;;;;;9.53;43.79;97038.59;5032283;28;20229;-80
2021/03/29 05:11:48;;;;;;;9.00;3.00;;;;;;;9.47;44.04;97049.38;5032659;28;20473;-81
2021/03/29 05:14:15;;;;;;;11.60;2.83;;;;;;;9.50;43.52;97042.22;5033562;28;20225;-81
2021/03/29 05:16:42;;;;;;;8.17;3.13;;;;;;;9.55;43.74;97041.84;5032462;28;20226;-80
2021/03/29 05:19:08;;;;;;;9.47;3.23;;;;;;;9.53;43.69;97051.44;5033738;28;20571;-81
2021/03/29 05:21:34;;;;;;;8.83;2.67;;;;;;;9.61;43.38;97054.16;5033018;28;20241;-82
2021/03/29 05:24:00;;;;;;;7.03;3.23;;;;;;;9.68;42.90;97048.34;5033213;28;20640;-79
2021/03/29 05:26:26;;;;;;;6.80;2.73;;;;;;;9.70;43.01;97050.78;5032185;28;20796;-80
2021/03/29 05:28:53;;;;;;;6.97;2.80;;;;;;;9.72;42.74;97055.78;5031471;28;20210;-81
2021/03/29 05:31:19;;;;;;;5.43;2.90;;;;;;;9.72;42.34;97059.16;5032409;28;20198;-80
2021/03/29 05:33:45;;;;;;;9.90;2.83;;;;;;;9.79;42.84;97056.88;5018558;28;20285;-80
2021/03/29 05:36:13;;;;;;;4.80;2.50;;;;;;;9.82;42.65;97054.00;5006619;28;20248;-80
2021/03/29 05:38:40;;;;;;;10.03;2.80;;;;;;;9.82;42.67;97062.53;5010239;28;20234;-80
2021/03/29 05:41:06;;;;;;;14.20;2.97;;;;;;;9.80;42.37;97061.09;5011504;28;20226;-80
2021/03/29 05:43:33;;;;;;;11.10;2.70;;;;;;;9.75;41.97;97056.34;5012771;28;20199;-81
2021/03/29 05:46:00;;;;;;;7.00;2.37;;;;;;;9.75;42.26;97070.94;5011317;28;20239;-81
2021/03/29 05:48:26;;;;;;;6.73;2.73;;;;;;;9.73;42.39;97058.22;5010838;28;20730;-80
2021/03/29 05:50:52;;;;;;;7.70;2.60;;;;;;;9.78;42.28;97060.41;5011133;28;20231;-80
2021/03/29 05:53:18;;;;;;;4.63;2.47;;;;;;;9.84;42.20;97070.94;5011422;28;20231;-80
2021/03/29 05:55:46;;;;;;;5.50;2.37;;;;;;;9.84;41.83;97068.38;5011771;28;20246;-82
2021/03/29 06:00:57;;;;;;;4.53;2.37;;;;;;;9.77;41.75;97075.03;5020450;28;20229;-81
2021/03/29 06:03:26;;;;;;;5.00;2.33;;;;;;;9.83;41.98;97076.22;5032527;28;20225;-83
2021/03/29 06:05:54;;;;;;;7.17;2.10;;;;;;;9.90;41.54;97077.31;5035834;28;20240;-82
2021/03/29 06:08:20;;;;;;;6.10;2.37;;;;;;;9.97;41.91;97086.13;5035737;28;20261;-82
2021/03/29 06:10:49;;;;;;;7.93;2.60;;;;;;;10.08;41.84;97083.41;5035235;28;20678;-81
2021/03/29 06:13:25;;;;;;;5.30;2.30;;;;;;;10.14;41.60;97079.47;5035276;28;20659;-81
2021/03/29 06:16:04;;;;;;;10.00;2.90;;;;;;;10.21;40.88;97073.66;5034941;28;20234;-81
2021/03/29 06:18:31;;;;;;;8.97;2.40;;;;;;;10.30;40.90;97075.44;5035344;28;20384;-81
2021/03/29 06:21:09;;;;;;;7.07;2.67;;;;;;;10.40;41.20;97083.13;5035337;28;20232;-79
2021/03/29 06:23:36;;;;;;;9.20;2.83;;;;;;;10.50;40.57;97077.97;5035751;28;20229;-80
2021/03/29 06:26:22;;;;;;;5.70;2.60;;;;;;;10.57;40.31;97081.63;5034723;28;20234;-82
2021/03/29 06:28:50;;;;;;;5.27;2.43;;;;;;;10.64;40.04;97080.91;5034319;28;20285;-82
2021/03/29 06:31:24;;;;;;;6.97;2.10;;;;;;;10.71;39.88;97083.75;5034078;28;20202;-81
2021/03/29 06:33:53;;;;;;;4.87;2.30;;;;;;;10.84;39.46;97088.56;5034039;28;20230;-82
2021/03/29 06:36:28;;;;;;;3.00;2.30;;;;;;;10.87;39.04;97093.44;5033954;28;20287;-80
2021/03/29 06:38:55;;;;;;;3.60;1.83;;;;;;;10.98;39.35;97094.06;5035013;28;20225;-81
2021/03/29 06:41:26;;;;;;;4.83;2.20;;;;;;;11.09;38.55;97095.66;5034678;28;20233;-82
2021/03/29 06:43:55;;;;;;;2.87;2.10;;;;;;;11.25;38.94;97095.88;5035610;28;20240;-82
2021/03/29 06:46:26;;;;;;;3.13;2.13;;;;;;;11.45;38.88;97099.16;5035691;28;21001;-82
2021/03/29 06:48:54;;;;;;;5.93;2.33;;;;;;;11.61;38.32;97101.09;5035085;28;20236;-81
2021/03/29 06:51:25;;;;;;;4.17;2.00;;;;;;;11.79;37.98;97101.13;5034757;28;20222;-81
2021/03/29 06:54:05;;;;;;;23.73;16.93;;;;;;;11.99;38.27;97103.44;5015700;28;20250;-80
2021/03/29 06:56:47;;;;;;;17.93;12.67;;;;;;;12.20;37.82;97099.72;5026215;28;20780;-82
2021/03/29 06:59:17;;;;;;;10.27;4.13;;;;;;;12.36;37.49;97105.84;5033948;28;20271;-81
2021/03/29 07:01:48;;;;;;;7.00;2.97;;;;;;;12.53;37.27;97104.19;5033436;28;20222;-82
2021/03/29 07:04:19;;;;;;;8.87;2.40;;;;;;;12.69;36.59;97106.91;5022525;28;20209;-80
2021/03/29 07:06:46;;;;;;;3.93;2.20;;;;;;;12.75;36.60;97105.44;5014408;28;20713;-81
2021/03/29 07:09:13;;;;;;;4.63;2.30;;;;;;;12.99;36.74;97107.38;5014102;28;20230;-80
2021/03/29 07:11:39;;;;;;;6.13;2.27;;;;;;;13.04;36.21;97115.50;5013931;28;20246;-80
2021/03/29 07:14:07;;;;;;;4.97;2.17;;;;;;;13.04;35.44;97118.88;5013276;28;20226;-81
2021/03/29 07:16:34;;;;;;;5.17;2.63;;;;;;;13.05;35.41;97117.09;5017401;28;20225;-82
2021/03/29 07:19:02;;;;;;;5.80;2.07;;;;;;;13.07;34.92;97117.78;5017963;28;20222;-81
2021/03/29 07:21:29;;;;;;;5.30;1.97;;;;;;;13.16;35.08;97124.63;5017087;28;20223;-83
2021/03/29 07:24:01;;;;;;;3.73;1.90;;;;;;;13.43;35.10;97123.63;5019699;28;20245;-83
2021/03/29 07:26:36;;;;;;;3.53;1.90;;;;;;;13.72;35.25;97128.38;5020545;28;20254;-81
2021/03/29 07:29:22;;;;;;;5.63;2.10;;;;;;;13.88;34.48;97127.59;5019398;28;20261;-83
2021/03/29 07:31:51;;;;;;;4.83;1.93;;;;;;;14.05;34.12;97122.28;5015472;28;20199;-82
2021/03/29 07:34:17;;;;;;;3.37;1.90;;;;;;;14.21;33.80;97131.06;5015202;28;20277;-81
2021/03/29 07:36:47;;;;;;;4.90;1.93;;;;;;;14.39;34.34;97134.31;5014323;28;20749;-81
2021/03/29 07:39:20;;;;;;;5.23;2.07;;;;;;;14.55;33.35;97128.34;5014493;28;20301;-81
2021/03/29 07:41:46;;;;;;;5.00;2.23;;;;;;;14.76;33.70;97132.06;5014313;28;20314;-81
2021/03/29 07:44:15;;;;;;;3.73;2.10;;;;;;;14.98;33.29;97140.13;5014202;28;20242;-82
2021/03/29 07:46:47;;;;;;;4.50;1.73;;;;;;;15.10;32.15;97136.19;5014865;28;20227;-82
2021/03/29 07:49:40;;;;;;;2.17;1.83;;;;;;;15.23;32.34;97133.06;5014986;28;20256;-81
2021/03/29 07:52:26;;;;;;;2.80;1.80;;;;;;;15.39;32.59;97131.25;4991968;28;20219;-82
2021/03/29 07:54:56;;;;;;;3.40;2.00;;;;;;;15.43;32.76;97124.72;5016057;28;20235;-82
2021/03/29 07:57:59;;;;;;;5.33;1.97;;;;;;;15.45;32.38;97125.34;5035616;28;20253;-83
2021/03/29 08:00:43;;;;;;;6.23;2.10;;;;;;;15.64;32.18;97131.13;5037482;28;20232;-83
2021/03/29 08:03:38;;;;;;;5.43;2.00;;;;;;;15.87;31.64;97124.19;5032165;28;20249;-81
2021/03/29 08:06:05;;;;;;;4.87;1.80;;;;;;;15.85;31.83;97131.34;5014453;28;20260;-82
2021/03/29 08:08:53;;;;;;;5.10;2.30;;;;;;;15.90;31.67;97123.88;5016052;28;20842;-83
2021/03/29 08:11:20;;;;;;;2.37;1.93;;;;;;;15.89;31.53;97124.84;5015312;28;20590;-82
2021/03/29 08:13:48;;;;;;;4.00;1.90;;;;;;;16.19;31.76;97128.38;5015253;28;20733;-83
2021/03/29 08:16:16;;;;;;;4.07;2.00;;;;;;;16.37;31.38;97125.47;5017627;28;20301;-82
2021/03/29 08:19:08;;;;;;;5.30;2.00;;;;;;;16.56;30.90;97119.78;5012950;28;20264;-83
2021/03/29 08:21:51;;;;;;;3.33;2.10;;;;;;;16.49;31.08;97122.31;5011986;28;20285;-79
2021/03/29 08:24:20;;;;;;;5.07;2.10;;;;;;;16.82;31.07;97119.41;5012764;28;20272;-80
2021/03/29 08:26:49;;;;;;;3.57;2.00;;;;;;;17.12;31.08;97109.84;5012261;28;20313;-81
2021/03/29 08:29:28;;;;;;;4.73;2.10;;;;;;;17.34;30.99;97116.72;5012756;28;20227;-80
2021/03/29 08:32:15;;;;;;;4.85;2.28;;;;;;;17.35;30.26;97117.53;5012752;28;20202;-82
2021/03/29 08:34:58;;;;;;;3.55;2.25;;;;;;;17.64;30.64;97120.16;5012368;28;20267;-81
2021/03/29 08:37:27;;;;;;;3.97;1.92;;;;;;;17.80;30.46;97117.31;5013298;28;20209;-82
2021/03/29 08:39:57;;;;;;;3.55;2.35;;;;;;;17.88;29.57;97114.63;5012454;28;20268;-83
2021/03/29 08:42:25;;;;;;;3.78;1.98;;;;;;;18.09;28.81;97121.63;5012413;28;20282;-82
2021/03/29 08:44:53;;;;;;;3.20;1.80;;;;;;;18.19;29.22;97116.91;5012169;28;20432;-83
2021/03/29 08:47:22;;;;;;;3.72;2.15;;;;;;;18.49;29.47;97121.97;5012712;28;20231;-83
2021/03/29 08:49:51;;;;;;;4.45;1.80;;;;;;;18.77;29.20;97117.63;5004305;28;20226;-82
2021/03/29 08:52:17;;;;;;;2.42;1.88;;;;;;;18.99;28.45;97110.53;5026783;28;20258;-84
2021/03/29 08:54:51;;;;;;;3.55;2.20;;;;;;;19.08;27.94;97119.81;5012288;28;20230;-83
2021/03/29 08:57:23;;;;;;;2.53;2.00;;;;;;;19.14;27.89;97118.25;5032726;28;20225;-83
2021/03/29 08:59:51;;;;;;;3.20;2.10;;;;;;;19.22;27.38;97118.91;5033203;28;20225;-83
2021/03/29 09:02:18;;;;;;;2.17;1.77;;;;;;;19.32;27.44;97118.56;4992461;28;20228;-82
2021/03/29 09:04:51;;;;;;;2.92;1.98;;;;;;;19.51;27.31;97123.09;4992504;28;20636;-82
2021/03/29 09:07:17;;;;;;;4.03;2.45;;;;;;;19.57;27.67;97113.69;4993095;28;20234;-82
2021/03/29 09:09:43;;;;;;;5.32;2.15;;;;;;;19.30;27.30;97110.91;4992161;28;20277;-80
2021/03/29 09:12:21;;;;;;;3.42;2.22;;;;;;;19.28;27.88;97117.31;4992970;28;20285;-82
2021/03/29 09:14:48;;;;;;;2.63;2.03;;;;;;;19.24;27.82;97116.13;4992571;28;20303;-82
2021/03/29 09:17:21;;;;;;;6.35;2.40;;;;;;;19.39;27.35;97122.03;5000999;28;20233;-80
2021/03/29 09:19:47;;;;;;;4.88;2.00;;;;;;;19.65;27.62;97129.97;5012014;28;20234;-81
2021/03/29 09:22:13;;;;;;;4.82;2.28;;;;;;;19.76;26.96;97123.41;5012359;28;20226;-80
2021/03/29 09:24:39;;;;;;;3.15;2.33;;;;;;;19.82;27.40;97119.97;5012428;28;20308;-82
2021/03/29 09:27:11;;;;;;;4.97;2.08;;;;;;;20.04;27.66;97123.25;5011298;28;20235;-82
2021/03/29 09:29:39;;;;;;;2.17;1.98;;;;;;;20.38;27.51;97124.16;5011040;28;20298;-81
2021/03/29 09:32:08;;;;;;;6.85;2.47;;;;;;;20.56;26.46;97119.94;5012190;28;20233;-83
2021/03/29 09:34:35;;;;;;;4.97;2.10;;;;;;;20.51;25.82;97124.16;5012372;28;20246;-80
2021/03/29 09:37:01;;;;;;;2.45;2.05;;;;;;;20.67;26.40;97129.78;5011693;28;20309;-82
2021/03/29 09:39:31;;;;;;;2.25;1.80;;;;;;;20.79;25.51;97129.19;5013617;28;21009;-82
2021/03/29 09:41:59;;;;;;;4.05;2.05;;;;;;;20.71;25.09;97135.44;5015252;28;20230;-83
2021/03/29 09:44:29;;;;;;;5.20;1.98;;;;;;;20.76;24.89;97145.31;5016175;28;20222;-81
2021/03/29 09:46:58;;;;;;;2.72;1.88;;;;;;;20.79;25.62;97135.22;5015218;28;20225;-81
2021/03/29 09:49:25;;;;;;;1.90;1.73;;;;;;;20.87;25.86;97145.50;5015873;28;20244;-81
2021/03/29 09:52:01;;;;;;;3.20;2.15;;;;;;;21.06;25.46;97133.38;5015072;28;20222;-81
2021/03/29 09:54:29;;;;;;;2.25;1.98;;;;;;;21.15;25.14;97129.56;5015085;28;20245;-82
2021/03/29 09:56:57;;;;;;;5.20;2.47;;;;;;;21.04;25.59;97124.91;5031444;28;20256;-81
2021/03/29 09:59:27;;;;;;;3.63;1.85;;;;;;;20.73;26.12;97137.84;5035705;28;20245;-83
2021/03/29 10:01:56;;;;;;;5.18;2.25;;;;;;;20.39;26.37;97137.06;5036587;28;20222;-83
2021/03/29 10:04:23;;;;;;;3.22;2.10;;;;;;;19.97;26.04;97131.09;5041280;28;20252;-84
2021/03/29 10:06:55;;;;;;;4.43;2.10;;;;;;;19.66;26.29;97123.75;5018396;28;20266;-83
2021/03/29 10:09:39;;;;;;;5.65;2.13;;;;;;;19.44;26.48;97127.44;5016114;28;20241;-85
2021/03/29 10:12:07;;;;;;;4.70;2.20;;;;;;;19.40;26.84;97128.84;5016309;28;20810;-86
2021/03/29 10:14:36;;;;;;;3.15;2.10;;;;;;;19.59;27.11;97117.72;5007454;28;20226;-85
2021/03/29 10:17:03;;;;;;;4.45;1.90;;;;;;;19.50;26.46;97123.28;5016497;28;20288;-84
2021/03/29 10:19:32;;;;;;;8.23;2.72;;;;;;;19.54;26.81;97119.28;5018542;28;20210;-84
2021/03/29 10:22:01;;;;;;;6.20;2.08;;;;;;;19.58;26.70;97120.53;5017524;28;20242;-83
2021/03/29 10:24:27;;;;;;;2.28;2.05;;;;;;;19.97;26.53;97123.25;5017032;28;20230;-84
2021/03/29 10:26:54;;;;;;;6.93;6.03;;;;;;;20.33;26.53;97114.25;5016611;28;20231;-82
2021/03/29 10:29:35;;;;;;;5.75;2.90;;;;;;;20.62;26.94;97123.53;5014369;28;20219;-85
2021/03/29 10:32:04;;;;;;;3.85;2.10;;;;;;;20.88;26.19;97125.34;5011309;28;20223;-86
2021/03/29 10:34:37;;;;;;;3.63;1.92;;;;;;;20.89;25.90;97125.16;5011942;28;20206;-86
2021/03/29 10:37:07;;;;;;;4.40;1.85;;;;;;;20.87;25.71;97116.69;5011689;28;20226;-87
2021/03/29 10:39:33;;;;;;;4.65;1.98;;;;;;;20.88;25.85;97122.72;5011175;28;20230;-86
2021/03/29 10:41:59;;;;;;;3.17;1.80;;;;;;;20.96;25.74;97114.69;5011441;28;20254;-86
2021/03/29 10:44:28;;;;;;;2.78;1.73;;;;;;;20.88;25.65;97104.41;5011348;28;20239;-86
2021/03/29 10:46:54;;;;;;;2.38;1.98;;;;;;;21.04;25.55;97109.22;5010656;28;20230;-86
2021/03/29 10:49:20;;;;;;;2.97;1.85;;;;;;;20.95;25.44;97103.41;5010934;28;20811;-86
2021/03/29 10:51:47;;;;;;;2.75;2.00;;;;;;;21.14;26.04;97098.31;5010767;28;20257;-85
2021/03/29 10:54:13;;;;;;;4.07;2.22;;;;;;;21.32;25.66;97103.72;5011161;28;20233;-86
2021/03/29 10:56:39;;;;;;;5.35;1.90;;;;;;;21.52;25.83;97104.47;5024552;28;20264;-86
2021/03/29 10:59:08;;;;;;;3.78;1.75;;;;;;;21.49;25.07;97099.63;5030518;28;20225;-85
2021/03/29 11:01:36;;;;;;;12.73;10.15;;;;;;;21.35;25.35;97103.31;5031144;28;20214;-84
2021/03/29 11:04:07;;;;;;;4.53;2.95;;;;;;;21.27;25.24;97098.31;5023509;28;20323;-83
2021/03/29 11:06:40;;;;;;;2.38;1.92;;;;;;;21.15;25.43;97087.63;5031139;28;20326;-83
2021/03/29 11:09:09;;;;;;;3.72;2.20;;;;;;;21.26;25.83;97094.06;5031035;28;20307;-83
2021/03/29 11:11:36;;;;;;;5.22;2.08;;;;;;;21.31;25.99;97081.97;5031706;28;20222;-84
2021/03/29 11:14:02;;;;;;;4.20;1.83;;;;;;;21.32;24.90;97088.00;5030451;28;21042;-84
2021/03/29 11:16:32;;;;;;;5.07;2.17;;;;;;;21.17;25.09;97079.53;5032450;28;20237;-83
2021/03/29 11:18:58;;;;;;;2.08;1.52;;;;;;;21.02;24.92;97080.59;5016622;28;20223;-84
2021/03/29 11:21:26;;;;;;;3.88;1.80;;;;;;;21.16;24.64;97077.97;5014895;28;20226;-83
2021/03/29 11:23:53;;;;;;;2.58;1.88;;;;;;;20.98;23.31;97070.72;5013677;28;20301;-82
2021/03/29 11:26:20;;;;;;;4.53;1.80;;;;;;;21.05;24.22;97074.16;5013404;28;20222;-84
2021/03/29 11:28:46;;;;;;;3.72;1.80;;;;;;;21.14;23.62;97070.31;5016476;28;20264;-84
2021/03/29 11:31:20;;;;;;;5.97;1.90;;;;;;;21.12;23.35;97066.28;5010941;28;20202;-84
2021/03/29 11:33:46;;;;;;;3.22;2.25;;;;;;;21.12;24.11;97072.31;5013740;28;20260;-83
2021/03/29 11:36:15;;;;;;;2.70;2.03;;;;;;;21.25;24.57;97067.06;5016689;28;20252;-84
2021/03/29 11:38:43;;;;;;;2.67;1.77;;;;;;;21.42;23.54;97059.53;5018162;28;20227;-83
2021/03/29 11:41:10;;;;;;;2.70;1.80;;;;;;;21.40;23.34;97060.75;5014307;28;20685;-83
2021/03/29 11:43:36;;;;;;;5.05;1.85;;;;;;;21.42;23.13;97062.16;5015836;28;20264;-84
2021/03/29 11:46:03;;;;;;;4.93;2.00;;;;;;;21.40;22.89;97063.38;5014845;28;20222;-84